Map

Track Data

SID SEASON NUMBER BASIN SUBBASIN NAME ISO_TIME NATURE LAT LON WMO_WIND WMO_PRES WMO_AGENCY TRACK_TYPE DIST2LAND LANDFALL IFLAG USA_AGENCY USA_ATCF_ID USA_LAT USA_LON USA_RECORD USA_STATUS USA_WIND USA_PRES USA_SSHS USA_R34_NE USA_R34_SE USA_R34_SW USA_R34_NW USA_R50_NE USA_R50_SE USA_R50_SW USA_R50_NW USA_R64_NE USA_R64_SE USA_R64_SW USA_R64_NW USA_POCI USA_ROCI USA_RMW USA_EYE TOKYO_LAT TOKYO_LON TOKYO_GRADE TOKYO_WIND TOKYO_PRES TOKYO_R50_DIR TOKYO_R50_LONG TOKYO_R50_SHORT TOKYO_R30_DIR TOKYO_R30_LONG TOKYO_R30_SHORT TOKYO_LAND CMA_LAT CMA_LON CMA_CAT CMA_WIND CMA_PRES HKO_LAT HKO_LON HKO_CAT HKO_WIND HKO_PRES NEWDELHI_LAT NEWDELHI_LON NEWDELHI_GRADE NEWDELHI_WIND NEWDELHI_PRES NEWDELHI_CI NEWDELHI_DP NEWDELHI_POCI REUNION_LAT REUNION_LON REUNION_TYPE REUNION_WIND REUNION_PRES REUNION_TNUM REUNION_CI REUNION_RMW REUNION_R34_NE REUNION_R34_SE REUNION_R34_SW REUNION_R34_NW REUNION_R50_NE REUNION_R50_SE REUNION_R50_SW REUNION_R50_NW REUNION_R64_NE REUNION_R64_SE REUNION_R64_SW REUNION_R64_NW BOM_LAT BOM_LON BOM_TYPE BOM_WIND BOM_PRES BOM_TNUM BOM_CI BOM_RMW BOM_R34_NE BOM_R34_SE BOM_R34_SW BOM_R34_NW BOM_R50_NE BOM_R50_SE BOM_R50_SW BOM_R50_NW BOM_R64_NE BOM_R64_SE BOM_R64_SW BOM_R64_NW BOM_ROCI BOM_POCI BOM_EYE BOM_POS_METHOD BOM_PRES_METHOD NADI_LAT NADI_LON NADI_CAT NADI_WIND NADI_PRES WELLINGTON_LAT WELLINGTON_LON WELLINGTON_WIND WELLINGTON_PRES DS824_LAT DS824_LON DS824_STAGE DS824_WIND DS824_PRES TD9636_LAT TD9636_LON TD9636_STAGE TD9636_WIND TD9636_PRES TD9635_LAT TD9635_LON TD9635_WIND TD9635_PRES TD9635_ROCI NEUMANN_LAT NEUMANN_LON NEUMANN_CLASS NEUMANN_WIND NEUMANN_PRES MLC_LAT MLC_LON MLC_CLASS MLC_WIND MLC_PRES USA_GUST BOM_GUST BOM_GUST_PER REUNION_GUST REUNION_GUST_PER USA_SEAHGT USA_SEARAD_NE USA_SEARAD_SE USA_SEARAD_SW USA_SEARAD_NW STORM_SPEED STORM_DIR
1999255N13336 1999 78 NA NA GERT 1999-09-11 12:00:00 TS 12.6000 -24.2000 30 1006 hurdat_atl main 761 761 O_____________ hurdat_atl AL091999 12.6000 -24.2000 TD 30 1006 -1 19 279
1999255N13336 1999 78 NA NA GERT 1999-09-11 15:00:00 TS 12.7431 -25.1474 main 851 851 P_____________ AL091999 12.7431 -25.1474 TD 30 1005 -1 19 279
1999255N13336 1999 78 NA NA GERT 1999-09-11 18:00:00 TS 12.9000 -26.1000 30 1005 hurdat_atl main 950 950 O_____________ hurdat_atl AL091999 12.9000 -26.1000 TD 30 1005 -1 19 280
1999255N13336 1999 78 NA NA GERT 1999-09-11 21:00:00 TS 13.0847 -27.0576 main 1052 1052 P_____________ AL091999 13.0847 -27.0576 TD 30 1005 -1 19 282
1999255N13336 1999 78 NA NA GERT 1999-09-12 00:00:00 TS 13.3000 -28.0000 30 1006 hurdat_atl main 1144 1144 O_____________ hurdat_atl AL091999 13.3000 -28.0000 TD 30 1006 -1 18 285
1999255N13336 1999 78 NA NA GERT 1999-09-12 03:00:00 TS 13.5493 -28.8851 main 1237 1235 P_____________ AL091999 13.5493 -28.8851 TD 30 1005 -1 18 286
1999255N13336 1999 78 NA NA GERT 1999-09-12 06:00:00 TS 13.8000 -29.8000 30 1005 hurdat_atl main 1329 1329 O_____________ hurdat_atl AL091999 13.8000 -29.8000 TD 30 1005 -1 20 283
1999255N13336 1999 78 NA NA GERT 1999-09-12 09:00:00 TS 13.9925 -30.8429 main 1435 1435 P_____________ AL091999 13.9925 -30.8429 TD 32 1003 -1 21 281
1999255N13336 1999 78 NA NA GERT 1999-09-12 12:00:00 TS 14.2000 -31.9000 35 1001 hurdat_atl main 1552 1552 O_____________ hurdat_atl AL091999 14.2000 -31.9000 TS 35 1001 0 20 285
1999255N13336 1999 78 NA NA GERT 1999-09-12 15:00:00 TS 14.5070 -32.8723 main 1657 1657 P_____________ AL091999 14.5070 -32.8723 TS 40 999 0 19 288
1999255N13336 1999 78 NA NA GERT 1999-09-12 18:00:00 TS 14.8000 -33.8000 45 997 hurdat_atl main 1753 1753 O_____________ hurdat_atl AL091999 14.8000 -33.8000 TS 45 997 0 18 285
1999255N13336 1999 78 NA NA GERT 1999-09-12 21:00:00 TS 14.9721 -34.7154 main 1849 1849 P_____________ AL091999 14.9721 -34.7154 TS 50 996 0 18 280
1999255N13336 1999 78 NA NA GERT 1999-09-13 00:00:00 TS 15.1000 -35.6000 55 995 hurdat_atl main 1945 1945 O_____________ hurdat_atl AL091999 15.1000 -35.6000 TS 55 995 0 17 279
1999255N13336 1999 78 NA NA GERT 1999-09-13 03:00:00 TS 15.2344 -36.4429 main 2031 1981 P_____________ AL091999 15.2344 -36.4429 TS 57 992 0 17 280
1999255N13336 1999 78 NA NA GERT 1999-09-13 06:00:00 TS 15.4000 -37.3000 60 990 hurdat_atl main 1973 1912 O_____________ hurdat_atl AL091999 15.4000 -37.3000 TS 60 990 0 18 284
1999255N13336 1999 78 NA NA GERT 1999-09-13 09:00:00 TS 15.6576 -38.2571 main 1911 1854 P_____________ AL091999 15.6576 -38.2571 TS 62 987 0 19 285
1999255N13336 1999 78 NA NA GERT 1999-09-13 12:00:00 TS 15.9000 -39.2000 65 984 hurdat_atl main 1854 1800 O_____________ hurdat_atl AL091999 15.9000 -39.2000 HU 65 984 1 18 282
1999255N13336 1999 78 NA NA GERT 1999-09-13 15:00:00 TS 16.0221 -40.0378 main 1800 1750 P_____________ AL091999 16.0221 -40.0378 HU 67 981 1 16 277
1999255N13336 1999 78 NA NA GERT 1999-09-13 18:00:00 TS 16.1000 -40.8000 70 979 hurdat_atl main 1750 1709 O_____________ hurdat_atl AL091999 16.1000 -40.8000 HU 70 979 1 14 277
1999255N13336 1999 78 NA NA GERT 1999-09-13 21:00:00 TS 16.1922 -41.5226 main 1709 1671 P_____________ AL091999 16.1922 -41.5226 HU 72 977 1 14 278
1999255N13336 1999 78 NA NA GERT 1999-09-14 00:00:00 TS 16.3000 -42.2000 75 976 hurdat_atl main 1671 1642 O_____________ hurdat_atl AL091999 16.3000 -42.2000 HU 75 976 1 13 281
1999255N13336 1999 78 NA NA GERT 1999-09-14 03:00:00 TS 16.4499 -42.8724 main 1636 1617 P_____________ AL091999 16.4499 -42.8724 HU 80 974 1 13 284
1999255N13336 1999 78 NA NA GERT 1999-09-14 06:00:00 TS 16.6000 -43.5000 85 973 hurdat_atl main 1617 1593 O_____________ hurdat_atl AL091999 16.6000 -43.5000 HU 85 973 2 12 282
1999255N13336 1999 78 NA NA GERT 1999-09-14 09:00:00 TS 16.6997 -44.0577 main 1586 1564 P_____________ AL091999 16.6997 -44.0577 HU 87 970 2 11 281
1999255N13336 1999 78 NA NA GERT 1999-09-14 12:00:00 TS 16.8000 -44.6000 90 968 hurdat_atl main 1564 1538 O_____________ hurdat_atl AL091999 16.8000 -44.6000 HU 90 968 2 11 283
1999255N13336 1999 78 NA NA GERT 1999-09-14 15:00:00 TS 16.9575 -45.1999 main 1548 1524 P_____________ AL091999 16.9575 -45.1999 HU 92 965 2 12 285
1999255N13336 1999 78 NA NA GERT 1999-09-14 18:00:00 TS 17.1000 -45.8000 95 962 hurdat_atl main 1524 1504 O_____________ hurdat_atl AL091999 17.1000 -45.8000 HU 95 962 2 11 280
1999255N13336 1999 78 NA NA GERT 1999-09-14 21:00:00 TS 17.1573 -46.3652 main 1503 1479 P_____________ AL091999 17.1573 -46.3652 HU 97 958 3 11 275
1999255N13336 1999 78 NA NA GERT 1999-09-15 00:00:00 TS 17.2000 -46.9000 100 955 hurdat_atl main 1479 1465 O_____________ hurdat_atl AL091999 17.2000 -46.9000 HU 100 955 3 10 278
1999255N13336 1999 78 NA NA GERT 1999-09-15 03:00:00 TS 17.2998 -47.4074 main 1466 1456 P_____________ AL091999 17.2998 -47.4074 HU 105 951 3 10 282
1999255N13336 1999 78 NA NA GERT 1999-09-15 06:00:00 TS 17.4000 -47.9000 110 948 hurdat_atl main 1456 1434 O_____________ hurdat_atl AL091999 17.4000 -47.9000 HU 110 948 3 10 279
1999255N13336 1999 78 NA NA GERT 1999-09-15 09:00:00 TS 17.4498 -48.3927 main 1434 1421 P_____________ AL091999 17.4498 -48.3927 HU 112 944 3 10 276
1999255N13336 1999 78 NA NA GERT 1999-09-15 12:00:00 TS 17.5000 -48.9000 115 940 hurdat_atl main 1421 1408 O_____________ hurdat_atl AL091999 17.5000 -48.9000 HU 115 940 4 10 278
1999255N13336 1999 78 NA NA GERT 1999-09-15 15:00:00 TS 17.6001 -49.4649 main 1406 1398 P_____________ AL091999 17.6001 -49.4649 HU 120 936 4 11 281
1999255N13336 1999 78 NA NA GERT 1999-09-15 18:00:00 TS 17.7000 -50.0000 125 933 hurdat_atl main 1398 1384 O_____________ hurdat_atl AL091999 17.7000 -50.0000 HU 125 933 4 9 279
1999255N13336 1999 78 NA NA GERT 1999-09-15 21:00:00 TS 17.7497 -50.4152 main 1384 1356 P_____________ AL091999 17.7497 -50.4152 HU 127 931 4 8 277
1999255N13336 1999 78 NA NA GERT 1999-09-16 00:00:00 TS 17.8000 -50.8000 130 930 hurdat_atl main 1356 1328 O_____________ hurdat_atl AL091999 17.8000 -50.8000 HU 130 930 4 8 280
1999255N13336 1999 78 NA NA GERT 1999-09-16 03:00:00 TS 17.8924 -51.2425 main 1328 1292 P_____________ AL091999 17.8924 -51.2425 HU 130 931 4 9 283
1999255N13336 1999 78 NA NA GERT 1999-09-16 06:00:00 TS 18.0000 -51.7000 130 933 hurdat_atl main 1292 1266 O_____________ hurdat_atl AL091999 18.0000 -51.7000 HU 130 933 4 9 282
1999255N13336 1999 78 NA NA GERT 1999-09-16 09:00:00 TS 18.0849 -52.1576 main 1258 1233 P_____________ AL091999 18.0849 -52.1576 HU 127 937 4 9 283
1999255N13336 1999 78 NA NA GERT 1999-09-16 12:00:00 TS 18.2000 -52.6000 125 941 hurdat_atl main 1233 1217 O_____________ hurdat_atl AL091999 18.2000 -52.6000 HU 125 941 4 9 290
1999255N13336 1999 78 NA NA GERT 1999-09-16 15:00:00 TS 18.3849 -53.0075 main 1218 1203 P_____________ AL091999 18.3849 -53.0075 HU 122 940 4 9 298
1999255N13336 1999 78 NA NA GERT 1999-09-16 18:00:00 TS 18.6000 -53.4000 120 940 hurdat_atl main 1204 1190 O_____________ hurdat_atl AL091999 18.6000 -53.4000 HU 120 940 4 9 299
1999255N13336 1999 78 NA NA GERT 1999-09-16 21:00:00 TS 18.7999 -53.8001 main 1192 1179 P_____________ AL091999 18.7999 -53.8001 HU 117 942 4 9 298
1999255N13336 1999 78 NA NA GERT 1999-09-17 00:00:00 TS 19.0000 -54.2000 115 944 hurdat_atl main 1181 1161 O_____________ hurdat_atl AL091999 19.0000 -54.2000 HU 115 944 4 9 297
1999255N13336 1999 78 NA NA GERT 1999-09-17 03:00:00 TS 19.1925 -54.6076 main 1161 1120 P_____________ AL091999 19.1925 -54.6076 HU 120 943 4 9 298
1999255N13336 1999 78 NA NA GERT 1999-09-17 06:00:00 TS 19.4000 -55.0000 125 942 hurdat_atl main 1120 1091 O_____________ hurdat_atl AL091999 19.4000 -55.0000 HU 125 942 4 8 302
1999255N13336 1999 78 NA NA GERT 1999-09-17 09:00:00 TS 19.6424 -55.3651 main 1080 1053 P_____________ AL091999 19.6424 -55.3651 HU 125 943 4 8 307
1999255N13336 1999 78 NA NA GERT 1999-09-17 12:00:00 TS 19.9000 -55.7000 125 945 hurdat_atl main 1053 1025 O_____________ hurdat_atl AL091999 19.9000 -55.7000 HU 125 945 4 8 310
1999255N13336 1999 78 NA NA GERT 1999-09-17 15:00:00 TS 20.1499 -56.0151 main 1025 1000 P_____________ AL091999 20.1499 -56.0151 HU 120 947 4 8 312
1999255N13336 1999 78 NA NA GERT 1999-09-17 18:00:00 TS 20.4000 -56.3000 115 950 hurdat_atl main 1000 974 O_____________ hurdat_atl AL091999 20.4000 -56.3000 HU 115 950 4 7 313
1999255N13336 1999 78 NA NA GERT 1999-09-17 21:00:00 TS 20.6350 -56.5726 main 974 959 P_____________ AL091999 20.6350 -56.5726 HU 112 951 3 7 317
1999255N13336 1999 78 NA NA GERT 1999-09-18 00:00:00 TS 20.9000 -56.8000 110 953 hurdat_atl main 962 952 O_____________ hurdat_atl AL091999 20.9000 -56.8000 HU 110 953 3 7 329
1999255N13336 1999 78 NA NA GERT 1999-09-18 03:00:00 TS 21.2424 -56.9651 main 952 952 P_____________ AL091999 21.2424 -56.9651 HU 107 953 3 8 338
1999255N13336 1999 78 NA NA GERT 1999-09-18 06:00:00 TS 21.6000 -57.1000 105 954 hurdat_atl main 957 951 O_____________ hurdat_atl AL091999 21.6000 -57.1000 HU 105 954 3 7 339
1999255N13336 1999 78 NA NA GERT 1999-09-18 09:00:00 TS 21.9075 -57.2426 main 959 949 P_____________ AL091999 21.9075 -57.2426 HU 105 953 3 7 335
1999255N13336 1999 78 NA NA GERT 1999-09-18 12:00:00 TS 22.2000 -57.4000 105 953 hurdat_atl main 954 945 O_____________ hurdat_atl AL091999 22.2000 -57.4000 HU 105 953 3 7 331
1999255N13336 1999 78 NA NA GERT 1999-09-18 15:00:00 TS 22.5000 -57.6000 main 950 943 P_____________ AL091999 22.5000 -57.6000 HU 105 951 3 7 328
1999255N13336 1999 78 NA NA GERT 1999-09-18 18:00:00 TS 22.8000 -57.8000 105 950 hurdat_atl main 948 945 O_____________ hurdat_atl AL091999 22.8000 -57.8000 HU 105 950 3 7 332
1999255N13336 1999 78 NA NA GERT 1999-09-18 21:00:00 TS 23.0924 -57.9353 main 957 948 P_____________ AL091999 23.0924 -57.9353 HU 107 948 3 7 335
1999255N13336 1999 78 NA NA GERT 1999-09-19 00:00:00 TS 23.4000 -58.1000 110 947 hurdat_atl main 958 953 O_____________ hurdat_atl AL091999 23.4000 -58.1000 HU 110 947 3 8 328
1999255N13336 1999 78 NA NA GERT 1999-09-19 03:00:00 TS 23.7501 -58.3848 main 960 950 P_____________ AL091999 23.7501 -58.3848 HU 112 946 3 9 322
1999255N13336 1999 78 NA NA GERT 1999-09-19 06:00:00 TS 24.1000 -58.7000 115 946 hurdat_atl main 957 956 O_____________ hurdat_atl AL091999 24.1000 -58.7000 HU 115 946 4 8 322
1999255N13336 1999 78 NA NA GERT 1999-09-19 09:00:00 TS 24.3923 -58.9355 main 964 957 P_____________ AL091999 24.3923 -58.9355 HU 115 946 4 8 323
1999255N13336 1999 78 NA NA GERT 1999-09-19 12:00:00 TS 24.7000 -59.2000 115 946 hurdat_atl main 966 966 O_____________ hurdat_atl AL091999 24.7000 -59.2000 HU 115 946 4 9 320
1999255N13336 1999 78 NA NA GERT 1999-09-19 15:00:00 TS 25.0926 -59.5848 main 971 971 P_____________ AL091999 25.0926 -59.5848 HU 115 946 4 11 318
1999255N13336 1999 78 NA NA GERT 1999-09-19 18:00:00 TS 25.5000 -60.0000 115 946 hurdat_atl main 981 981 O_____________ hurdat_atl AL091999 25.5000 -60.0000 HU 115 946 4 10 318
1999255N13336 1999 78 NA NA GERT 1999-09-19 21:00:00 TS 25.8649 -60.3578 main 994 994 P_____________ AL091999 25.8649 -60.3578 HU 115 946 4 9 318
1999255N13336 1999 78 NA NA GERT 1999-09-20 00:00:00 TS 26.2000 -60.7000 115 947 hurdat_atl main 1006 1006 O_____________ hurdat_atl AL091999 26.2000 -60.7000 HU 115 947 4 9 316
1999255N13336 1999 78 NA NA GERT 1999-09-20 03:00:00 TS 26.4922 -61.0281 main 1021 1016 P_____________ AL091999 26.4922 -61.0281 HU 112 947 3 9 314
1999255N13336 1999 78 NA NA GERT 1999-09-20 06:00:00 TS 26.8000 -61.4000 110 947 hurdat_atl main 1032 1028 O_____________ hurdat_atl AL091999 26.8000 -61.4000 HU 110 947 3 11 311
1999255N13336 1999 78 NA NA GERT 1999-09-20 09:00:00 TS 27.1930 -61.9293 main 1054 1050 P_____________ AL091999 27.1930 -61.9293 HU 107 947 3 12 312
1999255N13336 1999 78 NA NA GERT 1999-09-20 12:00:00 TS 27.6000 -62.4000 105 948 hurdat_atl main 1079 1079 O_____________ hurdat_atl AL091999 27.6000 -62.4000 HU 105 948 3 10 321
1999255N13336 1999 78 NA NA GERT 1999-09-20 15:00:00 TS 27.9422 -62.6106 main 1105 1105 P_____________ AL091999 27.9422 -62.6106 HU 102 948 3 8 339
1999255N13336 1999 78 NA NA GERT 1999-09-20 18:00:00 TS 28.3000 -62.7000 100 949 hurdat_atl main 1145 1145 O_____________ hurdat_atl AL091999 28.3000 -62.7000 HU 100 949 3 8 346
1999255N13336 1999 78 NA NA GERT 1999-09-20 21:00:00 TS 28.7350 -62.8298 main 1185 1185 P_____________ AL091999 28.7350 -62.8298 HU 97 949 3 9 349
1999255N13336 1999 78 NA NA GERT 1999-09-21 00:00:00 TS 29.2000 -62.9000 95 950 hurdat_atl main 1237 1237 O_____________ hurdat_atl AL091999 29.2000 -62.9000 HU 95 950 2 9 357
1999255N13336 1999 78 NA NA GERT 1999-09-21 03:00:00 TS 29.6275 -62.8801 main 1281 1281 P_____________ AL091999 29.6275 -62.8801 HU 92 951 2 9 5
1999255N13336 1999 78 NA NA GERT 1999-09-21 06:00:00 TS 30.1000 -62.8000 90 952 hurdat_atl main 1337 1318 O_____________ hurdat_atl AL091999 30.1000 -62.8000 HU 90 952 2 10 7
1999255N13336 1999 78 NA NA GERT 1999-09-21 09:00:00 TS 30.6624 -62.7295 main 1315 1292 P_____________ AL091999 30.6624 -62.7295 HU 87 953 2 12 8
1999255N13336 1999 78 NA NA GERT 1999-09-21 12:00:00 TS 31.3000 -62.6000 85 955 hurdat_atl main 1292 1277 O_____________ hurdat_atl AL091999 31.3000 -62.6000 HU 85 955 2 13 12
1999255N13336 1999 78 NA NA GERT 1999-09-21 15:00:00 TS 31.9698 -62.4018 main 1272 1220 P_____________ AL091999 31.9698 -62.4018 HU 82 956 1 15 17
1999255N13336 1999 78 NA NA GERT 1999-09-21 18:00:00 TS 32.7000 -62.1000 80 958 hurdat_atl main 1220 1166 O_____________ hurdat_atl AL091999 32.7000 -62.1000 HU 80 958 1 16 22
1999255N13336 1999 78 NA NA GERT 1999-09-21 21:00:00 TS 33.4627 -61.6725 main 1156 1083 P_____________ AL091999 33.4627 -61.6725 HU 77 959 1 18 25
1999255N13336 1999 78 NA NA GERT 1999-09-22 00:00:00 TS 34.3000 -61.2000 75 960 hurdat_atl main 1083 1000 O_____________ hurdat_atl AL091999 34.3000 -61.2000 HU 75 960 1 19 22
1999255N13336 1999 78 NA NA GERT 1999-09-22 03:00:00 TS 35.2272 -60.8061 main 1000 922 P_____________ AL091999 35.2272 -60.8061 HU 75 960 1 20 19
1999255N13336 1999 78 NA NA GERT 1999-09-22 06:00:00 TS 36.2000 -60.4000 75 961 hurdat_atl main 912 840 O_____________ hurdat_atl AL091999 36.2000 -60.4000 HU 75 961 1 20 20
1999255N13336 1999 78 NA NA GERT 1999-09-22 09:00:00 TS 37.1270 -59.9497 main 845 781 P_____________ AL091999 37.1270 -59.9497 HU 72 961 1 21 23
1999255N13336 1999 78 NA NA GERT 1999-09-22 12:00:00 TS 38.1000 -59.4000 70 962 hurdat_atl main 778 703 O_____________ hurdat_atl AL091999 38.1000 -59.4000 HU 70 962 1 23 25
1999255N13336 1999 78 NA NA GERT 1999-09-22 15:00:00 TS 39.1989 -58.7454 main 695 610 P_____________ AL091999 39.1989 -58.7454 HU 67 962 1 25 28
1999255N13336 1999 78 NA NA GERT 1999-09-22 18:00:00 TS 40.3000 -57.9000 65 963 hurdat_atl main 603 564 O_____________ hurdat_atl AL091999 40.3000 -57.9000 HU 65 963 1 26 37
1999255N13336 1999 78 NA NA GERT 1999-09-22 21:00:00 TS 41.2376 -56.7211 main 569 522 P_____________ AL091999 41.2376 -56.7211 HU 62 963 0 26 42
1999255N13336 1999 78 NA NA GERT 1999-09-23 00:00:00 TS 42.2000 -55.6000 60 964 hurdat_atl main 511 385 O_____________ hurdat_atl AL091999 42.2000 -55.6000 TS 60 964 0 25 30
1999255N13336 1999 78 NA NA GERT 1999-09-23 03:00:00 TS 43.3882 -55.0616 main 374 243 P_____________ AL091999 43.3882 -55.0616 TS 60 966 0 25 18
1999255N13336 1999 78 NA NA GERT 1999-09-23 06:00:00 TS 44.6000 -54.5000 60 968 hurdat_atl main 232 111 O_____________ hurdat_atl AL091999 44.6000 -54.5000 TS 60 968 0 26 28
1999255N13336 1999 78 NA NA GERT 1999-09-23 09:00:00 TS 45.6592 -53.3955 main 100 63 P_____________ AL091999 45.6592 -53.3955 TS 60 970 0 27 42
1999255N13336 1999 78 NA NA GERT 1999-09-23 12:00:00 ET 46.6000 -51.9000 60 972 hurdat_atl main 86 O_____________ hurdat_atl AL091999 46.6000 -51.9000 EX 60 972 -4 28 48

About IBTrACS Database

This database is a web-friendly format of International Best Track Archive for Climate Stewardship (IBTrACS), a global best track data archive curated by NOAA dating back to 1842.

Updated: 2021-10-21